Huvudsida
METAR-TAF:

METAR-TAF

Flygplatser :

Hans Christian Andersens flygplats

Odense, Danmark

latitud: 55-29N, longitud: 010-20E, höjd: 17 m

Aktuellt väderrapport

Denna rapport gjordes för 6 timmar och 56 minuter sedan, klockan 13:50 UTC
Vind 12 kt från syd
Temperatur 5°C
Fuktighet 93%
Tryck 1013 hPa
Sikt 10 km eller mer
Få moln på en höjd av 1300 ft

METAR: EKOD 261350Z 18012KT 9999 FEW013 05/04 Q1013

Tid: 21:46 (20:46 UTC)

Väderprognos

Denna rapport gjordes för 11 timmar och 51 minuter sedan, klockan 08:55 UTC
Prognos gäller från 26 kl. 09 UTC till 26 kl. 14 UTC
Vind 10 kt från syd/sydväst
Sikt: 8000 m
Spridda moln på en höjd av 600 ft
Brutna moln på en höjd av 2000 ft
Temporärt
från 26 kl. 09 UTC till 26 kl. 14 UTC
Sikt: 4000 m
Brutna moln på en höjd av 600 ft
fuktdis

TAF: EKOD 260855Z 2609/2614 20010KT 8000 SCT006 BKN020 TEMPO 2609/2614 4000 BR BKN006

Aktuella väderrapporter och prognoser från 4000 flygplatser (METAR- och TAF-rapporter).

De tillgängliga stationerna syns som gula och röda prickar på kartan.

För musen över prickarna för att se namnen på stationerna.

Klicka sedan för att få väderrapporter och prognoser.

För att ändra kartan: Klicka på de gröna knapparna med ett svart kors på för att zooma in; den gröna knappen med ett streck på för att zooma ut; eller på de gröna pilarna för angränsande kartor.


METAR-TAF: